Time;durP1;ratioP1;P1;durP2;ratioP2;P2;SDS_P1;SDS_P2;PMS_P1;PMS_P2;Temp;Humidity;BMP_temperature;BMP_pressure;BME280_temperature;BME280_humidity;BME280_pressure;Samples;Min_cycle;Max_cycle;Signal;HPM_P1;HPM_P2
2022/12/12 00:01:54;;;;;;;1999.90;999.90;;;0.30;99.90;;;;;;6713561;88;20252;-75
2022/12/12 00:11:55;;;;;;;1999.90;999.90;;;0.40;99.90;;;;;;6713370;88;20185;-74
2022/12/12 00:21:55;;;;;;;1999.90;999.90;;;0.40;99.90;;;;;;6712969;88;20223;-75
2022/12/12 00:31:56;;;;;;;1999.90;999.90;;;0.30;99.90;;;;;;6719154;88;20263;-74
2022/12/12 00:41:57;;;;;;;1999.90;999.90;;;0.20;99.90;;;;;;6713092;88;20272;-74
2022/12/12 00:51:57;;;;;;;1999.90;999.90;;;0.20;99.90;;;;;;6711727;88;20541;-74
2022/12/12 01:01:58;;;;;;;1999.90;999.90;;;0.20;99.90;;;;;;6715058;88;20224;-74
2022/12/12 01:11:58;;;;;;;1999.90;999.90;;;0.20;99.90;;;;;;6718074;88;20224;-75
2022/12/12 01:21:59;;;;;;;1999.90;999.90;;;0.10;99.90;;;;;;6712324;88;20838;-75
2022/12/12 01:31:59;;;;;;;1999.90;999.90;;;0.10;99.90;;;;;;6723480;88;20503;-74
2022/12/12 01:42:00;;;;;;;1999.90;999.90;;;0.10;99.90;;;;;;6721852;88;20663;-74
2022/12/12 01:52:06;;;;;;;1999.90;999.90;;;-0.10;99.90;;;;;;6712779;88;20319;-75
2022/12/12 02:02:08;;;;;;;1999.90;999.90;;;-0.20;99.90;;;;;;6713988;88;20243;-75
2022/12/12 02:12:13;;;;;;;1999.90;999.90;;;-0.10;99.90;;;;;;6714927;88;20644;-75
2022/12/12 02:22:48;;;;;;;1999.90;999.90;;;-0.30;99.90;;;;;;6714922;88;20202;-75
2022/12/12 02:32:52;;;;;;;1999.90;999.90;;;-0.20;99.90;;;;;;6716603;88;20213;-73
2022/12/12 02:43:05;;;;;;;1999.90;999.90;;;-0.40;99.90;;;;;;6714713;88;20660;-75
2022/12/12 02:53:06;;;;;;;1999.90;999.90;;;-0.40;99.90;;;;;;6718938;88;20192;-75
2022/12/12 03:14:23;;;;;;;1999.90;999.90;;;-0.30;99.90;;;;;;6716789;88;20177;-75
2022/12/12 03:24:37;;;;;;;1999.90;999.90;;;-0.40;99.90;;;;;;6709541;88;20450;-75
2022/12/12 03:34:44;;;;;;;1999.90;999.90;;;-0.30;99.90;;;;;;6715704;88;20195;-75
2022/12/12 03:44:47;;;;;;;;;;;-0.30;99.90;;;;;;6718869;88;20225;-73
2022/12/12 03:54:57;;;;;;;1999.90;999.90;;;-0.40;99.90;;;;;;6722225;88;20199;-73
2022/12/12 04:05:21;;;;;;;1999.90;999.90;;;-0.30;99.90;;;;;;6715148;88;20218;-73
2022/12/12 04:15:34;;;;;;;1999.90;999.90;;;-0.40;99.90;;;;;;6713992;88;20373;-73
2022/12/12 04:36:19;;;;;;;1999.90;999.90;;;-0.60;99.90;;;;;;6711137;88;20188;-73
2022/12/12 04:46:24;;;;;;;1999.90;999.90;;;-0.70;99.90;;;;;;6721688;88;20190;-73
2022/12/12 04:56:28;;;;;;;1999.90;999.90;;;-1.00;99.90;;;;;;6713669;88;20711;-73
2022/12/12 05:06:38;;;;;;;1999.90;999.90;;;-0.90;99.90;;;;;;6716790;88;20237;-75
2022/12/12 05:16:48;;;;;;;1999.90;999.90;;;-0.90;99.90;;;;;;6717195;88;20250;-76
2022/12/12 05:26:48;;;;;;;1999.90;999.90;;;-1.00;99.90;;;;;;6728844;88;20213;-76
2022/12/12 05:36:49;;;;;;;1999.90;999.90;;;-0.90;99.90;;;;;;6715404;88;20221;-75
2022/12/12 05:46:49;;;;;;;1999.90;999.90;;;-0.90;99.90;;;;;;6717203;88;20619;-75
2022/12/12 05:56:50;;;;;;;1999.90;999.90;;;-0.90;99.90;;;;;;6716268;88;20189;-75
2022/12/12 06:06:50;;;;;;;1999.90;999.90;;;-0.90;99.90;;;;;;6713843;88;20356;-75
2022/12/12 06:16:51;;;;;;;1999.90;999.90;;;-0.90;99.90;;;;;;6714977;88;20202;-75
2022/12/12 06:26:52;;;;;;;1999.90;999.90;;;-1.00;99.90;;;;;;6718063;88;20287;-74
2022/12/12 06:36:52;;;;;;;1999.90;999.90;;;-1.10;99.90;;;;;;6723890;88;20266;-77
2022/12/12 06:46:53;;;;;;;1999.90;999.90;;;-1.20;99.90;;;;;;6717079;88;20210;-74
2022/12/12 06:56:54;;;;;;;1999.90;999.90;;;-1.00;99.90;;;;;;6714760;88;20203;-76
2022/12/12 07:06:55;;;;;;;1999.90;999.90;;;-1.00;99.90;;;;;;6713985;88;20212;-75
2022/12/12 07:16:55;;;;;;;1999.90;999.90;;;-1.00;99.90;;;;;;6711672;88;20760;-74
2022/12/12 07:26:56;;;;;;;1999.90;999.90;;;-1.00;99.90;;;;;;6711268;88;20272;-74
2022/12/12 07:36:56;;;;;;;1999.90;999.90;;;-1.10;99.90;;;;;;6712548;88;20516;-74
2022/12/12 07:46:57;;;;;;;1999.90;999.90;;;-1.10;99.90;;;;;;6711963;88;20625;-74
2022/12/12 07:56:59;;;;;;;1999.90;999.90;;;-1.00;99.90;;;;;;6713618;88;20232;-73
2022/12/12 08:06:59;;;;;;;1999.90;999.90;;;-0.90;99.90;;;;;;6708071;88;20201;-73
2022/12/12 08:17:00;;;;;;;1999.90;999.90;;;-1.00;99.90;;;;;;6709251;88;20218;-73
2022/12/12 08:27:00;;;;;;;1999.90;999.90;;;-1.00;99.90;;;;;;6718481;88;20501;-74
2022/12/12 08:37:01;;;;;;;1999.90;999.90;;;-0.90;99.90;;;;;;6719027;88;20319;-73
2022/12/12 08:47:01;;;;;;;1999.90;999.90;;;-0.80;99.90;;;;;;6719564;88;20441;-73
2022/12/12 08:57:02;;;;;;;1999.90;999.90;;;-0.70;99.90;;;;;;6718561;88;20322;-73
2022/12/12 09:07:03;;;;;;;1999.90;999.90;;;-0.60;99.90;;;;;;6720385;88;20239;-73
2022/12/12 09:17:04;;;;;;;1999.90;999.90;;;-0.50;99.90;;;;;;6715321;88;20394;-73
2022/12/12 09:27:04;;;;;;;1999.90;999.90;;;0.00;99.90;;;;;;6728271;88;20737;-74
2022/12/12 09:37:05;;;;;;;1999.90;999.90;;;0.40;99.90;;;;;;6717712;88;20287;-73
2022/12/12 09:47:29;;;;;;;1999.90;999.90;;;0.70;99.90;;;;;;6713889;88;20572;-74
2022/12/12 09:57:44;;;;;;;1999.90;999.90;;;1.10;99.90;;;;;;6707847;88;20570;-74
2022/12/12 10:08:18;;;;;;;1999.90;999.90;;;1.30;99.90;;;;;;6716625;88;20235;-74
2022/12/12 10:18:24;;;;;;;1999.90;999.90;;;1.50;99.90;;;;;;6715820;88;20596;-74
2022/12/12 10:28:26;;;;;;;;;;;2.40;99.90;;;;;;6710482;88;20284;-73
2022/12/12 10:38:59;;;;;;;1999.90;999.90;;;2.80;99.90;;;;;;6711730;88;20167;-73
2022/12/12 10:48:59;;;;;;;1999.90;999.90;;;3.00;99.90;;;;;;6703831;88;20274;-74
2022/12/12 10:59:00;;;;;;;1999.90;999.90;;;2.80;99.90;;;;;;6708882;88;20211;-74
2022/12/12 11:09:28;;;;;;;1999.90;999.90;;;3.00;99.90;;;;;;6708874;88;20421;-74
2022/12/12 11:19:37;;;;;;;1999.90;999.90;;;3.20;99.90;;;;;;6709664;88;20193;-73
2022/12/12 11:29:54;;;;;;;1999.90;999.90;;;3.80;99.90;;;;;;6709873;88;20182;-73
2022/12/12 11:39:56;;;;;;;1999.90;999.90;;;4.20;99.90;;;;;;6713196;88;20609;-73
2022/12/12 11:49:59;;;;;;;1999.90;999.90;;;4.60;99.90;;;;;;6719209;88;20206;-73
2022/12/12 12:00:00;;;;;;;1999.90;999.90;;;4.70;99.90;;;;;;6712036;88;20438;-73
2022/12/12 12:10:06;;;;;;;1999.90;999.90;;;5.70;99.90;;;;;;6717324;88;20394;-73
2022/12/12 12:20:12;;;;;;;;;;;6.10;99.90;;;;;;6713291;88;20246;-73
2022/12/12 12:30:22;;;;;;;1999.90;999.90;;;5.60;99.90;;;;;;6716843;88;20211;-74
2022/12/12 12:40:39;;;;;;;1999.90;999.90;;;5.90;99.90;;;;;;6716186;88;20637;-73
2022/12/12 12:50:55;;;;;;;1999.90;999.90;;;5.50;99.90;;;;;;6717382;88;20348;-74
2022/12/12 13:01:04;;;;;;;1999.90;999.90;;;6.80;99.90;;;;;;6715614;88;20194;-74
2022/12/12 13:11:10;;;;;;;1999.90;999.90;;;7.80;99.90;;;;;;6717416;88;20306;-74
2022/12/12 13:21:33;;;;;;;1999.90;999.90;;;8.70;99.90;;;;;;6719086;88;20202;-73
2022/12/12 13:31:58;;;;;;;1999.90;999.90;;;7.70;99.90;;;;;;6718984;88;20808;-74
2022/12/12 13:42:01;;;;;;;1999.90;999.90;;;8.20;99.90;;;;;;6713711;88;20331;-73
2022/12/12 13:52:29;;;;;;;1999.90;999.90;;;7.20;99.90;;;;;;6713895;88;20203;-73
2022/12/12 14:02:37;;;;;;;1999.90;999.90;;;7.30;99.90;;;;;;6717807;88;20256;-73
2022/12/12 14:12:38;;;;;;;1999.90;999.90;;;7.00;99.90;;;;;;6713904;88;20182;-72
2022/12/12 14:22:39;;;;;;;1999.90;999.90;;;6.40;99.90;;;;;;6711184;88;20185;-72
2022/12/12 14:32:50;;;;;;;1999.90;999.90;;;6.00;99.90;;;;;;6724024;88;20216;-72
2022/12/12 14:43:17;;;;;;;1999.90;999.90;;;5.40;99.90;;;;;;6717612;88;20324;-73
2022/12/12 14:53:24;;;;;;;1999.90;999.90;;;4.70;99.90;;;;;;6715427;88;20188;-73
2022/12/12 15:03:32;;;;;;;1999.90;999.90;;;3.60;99.90;;;;;;6715073;88;20684;-73
2022/12/12 15:13:32;;;;;;;1999.90;999.90;;;3.40;99.90;;;;;;6716145;88;20198;-74
2022/12/12 15:23:33;;;;;;;1999.90;999.90;;;3.00;99.90;;;;;;6719752;88;20680;-73
2022/12/12 15:33:36;;;;;;;1999.90;999.90;;;2.50;99.90;;;;;;6712224;88;20301;-74
2022/12/12 15:43:38;;;;;;;1999.90;999.90;;;2.00;99.90;;;;;;6716417;88;20194;-73
2022/12/12 15:53:45;;;;;;;1999.90;999.90;;;1.70;99.90;;;;;;6716180;88;20283;-73
2022/12/12 16:04:20;;;;;;;1999.90;999.90;;;1.60;99.90;;;;;;6715204;88;20197;-74
2022/12/12 16:14:40;;;;;;;1999.90;999.90;;;1.30;99.90;;;;;;6716202;88;20319;-73
2022/12/12 16:24:53;;;;;;;1999.90;999.90;;;1.10;99.90;;;;;;6758882;77;20298;-73
2022/12/12 16:34:54;;;;;;;1999.90;999.90;;;0.90;99.90;;;;;;6739691;88;20293;-74
2022/12/12 16:44:54;;;;;;;1999.90;999.90;;;0.60;99.90;;;;;;6739875;88;20193;-73
2022/12/12 16:54:55;;;;;;;1999.90;999.90;;;0.40;99.90;;;;;;6739074;88;20522;-73
2022/12/12 17:04:55;;;;;;;1999.90;999.90;;;0.40;99.90;;;;;;6741338;88;20635;-74
2022/12/12 17:14:56;;;;;;;1999.90;999.90;;;0.30;99.90;;;;;;6736035;88;20192;-74
2022/12/12 17:24:56;;;;;;;1999.90;999.90;;;0.30;99.90;;;;;;6738947;88;21343;-75
2022/12/12 17:34:57;;;;;;;1999.90;999.90;;;0.20;99.90;;;;;;6745898;88;20212;-75
2022/12/12 17:44:58;;;;;;;1999.90;999.90;;;0.10;99.90;;;;;;6735174;88;20307;-74
2022/12/12 17:54:58;;;;;;;1999.90;999.90;;;-0.10;99.90;;;;;;6739733;88;20177;-72
2022/12/12 18:05:02;;;;;;;1999.90;999.90;;;-0.20;99.90;;;;;;6731509;88;22218;-73
2022/12/12 18:15:03;;;;;;;1999.90;999.90;;;-0.30;99.90;;;;;;6737509;88;20204;-75
2022/12/12 18:25:04;;;;;;;1999.90;999.90;;;-0.40;99.90;;;;;;6733950;88;20200;-76
2022/12/12 18:35:05;;;;;;;1999.90;999.90;;;-0.40;99.90;;;;;;6734230;88;20334;-75
2022/12/12 18:45:08;;;;;;;1999.90;999.90;;;-0.40;99.90;;;;;;6737596;88;20195;-77
2022/12/12 18:55:08;;;;;;;1999.90;999.90;;;-0.50;99.90;;;;;;6737406;88;20200;-74
2022/12/12 19:05:12;;;;;;;1999.90;999.90;;;-0.70;99.90;;;;;;6731148;88;20177;-76
2022/12/12 19:15:12;;;;;;;1999.90;999.90;;;-0.80;99.90;;;;;;6732307;88;20240;-76
2022/12/12 19:25:14;;;;;;;1999.90;999.90;;;-1.00;99.90;;;;;;6739459;88;21078;-74
2022/12/12 19:35:15;;;;;;;1999.90;999.90;;;-1.00;99.90;;;;;;6741215;88;20178;-76
2022/12/12 19:45:16;;;;;;;1999.90;999.90;;;-0.90;99.90;;;;;;6745685;88;20208;-75
2022/12/12 19:55:16;;;;;;;1999.90;999.90;;;-1.00;99.90;;;;;;6754199;88;20276;-75
2022/12/12 20:05:17;;;;;;;1999.90;999.90;;;-1.00;99.90;;;;;;6746623;88;20215;-76
2022/12/12 20:15:17;;;;;;;1999.90;999.90;;;-1.10;99.90;;;;;;6743132;88;20214;-76
2022/12/12 20:25:18;;;;;;;1999.90;999.90;;;-1.10;99.90;;;;;;6743189;88;20631;-75
2022/12/12 20:35:18;;;;;;;1999.90;999.90;;;-1.30;99.90;;;;;;6743384;88;20206;-76
2022/12/12 20:45:19;;;;;;;1999.90;999.90;;;-1.30;99.90;;;;;;6738621;88;20222;-76
2022/12/12 20:55:19;;;;;;;1999.90;999.90;;;-1.30;99.90;;;;;;6741964;88;20212;-75
2022/12/12 21:05:20;;;;;;;1999.90;999.90;;;-1.40;99.90;;;;;;6743991;88;20212;-77
2022/12/12 21:15:21;;;;;;;1999.90;999.90;;;-1.40;99.90;;;;;;6739596;88;20185;-78
2022/12/12 21:25:23;;;;;;;1999.90;999.90;;;-1.40;99.90;;;;;;6744407;88;20253;-76
2022/12/12 21:35:24;;;;;;;1999.90;999.90;;;-1.50;99.90;;;;;;6738157;88;20718;-74
2022/12/12 21:45:24;;;;;;;1999.90;999.90;;;-1.50;99.90;;;;;;6734812;88;21048;-74
2022/12/12 21:55:25;;;;;;;1999.90;999.90;;;-1.70;99.90;;;;;;6738512;88;20188;-76
2022/12/12 22:05:26;;;;;;;1999.90;999.90;;;-1.70;99.90;;;;;;6737465;88;20204;-75
2022/12/12 22:15:26;;;;;;;1999.90;999.90;;;-1.80;99.90;;;;;;6737613;87;20210;-75
2022/12/12 22:35:30;;;;;;;1999.90;999.90;;;-1.80;99.90;;;;;;6736991;88;20734;-78
2022/12/12 22:45:33;;;;;;;1999.90;999.90;;;-1.90;99.90;;;;;;6730632;88;20460;-77
2022/12/12 22:55:34;;;;;;;1999.90;999.90;;;-2.10;99.90;;;;;;6731470;88;20539;-77
2022/12/12 23:05:35;;;;;;;1999.90;999.90;;;-2.10;99.90;;;;;;6726504;88;20241;-78
2022/12/12 23:15:37;;;;;;;1999.90;999.90;;;-2.30;99.90;;;;;;6737452;88;20632;-76
2022/12/12 23:25:38;;;;;;;1999.90;999.90;;;-2.50;99.90;;;;;;6732307;88;20210;-75
2022/12/12 23:35:45;;;;;;;1999.90;999.90;;;-2.40;99.90;;;;;;6738740;88;20200;-75
2022/12/12 23:45:46;;;;;;;1999.90;999.90;;;-2.50;99.90;;;;;;6733474;88;20704;-76
2022/12/12 23:55:46;;;;;;;1999.90;999.90;;;-2.60;99.90;;;;;;6734534;88;20281;-75
